sensor_id;sensor_type;location;lat;lon;timestamp;pressure;altitude;pressure_sealevel;temperature;humidity
43298;BME280;28892;55.640;37.532;2023-04-25T00:00:12;98549.28;;;14.58;37.82
43298;BME280;28892;55.640;37.532;2023-04-25T00:02:39;98551.34;;;15.05;36.33
43298;BME280;28892;55.640;37.532;2023-04-25T00:05:05;98551.16;;;15.19;35.67
43298;BME280;28892;55.640;37.532;2023-04-25T00:07:31;98549.75;;;15.16;36.05
43298;BME280;28892;55.640;37.532;2023-04-25T00:09:58;98566.91;;;15.39;36.42
43298;BME280;28892;55.640;37.532;2023-04-25T00:12:24;98585.97;;;15.78;35.42
43298;BME280;28892;55.640;37.532;2023-04-25T00:14:50;98563.69;;;15.85;33.86
43298;BME280;28892;55.640;37.532;2023-04-25T00:17:16;98578.31;;;15.82;35.64
43298;BME280;28892;55.640;37.532;2023-04-25T00:19:42;98566.69;;;15.88;36.04
43298;BME280;28892;55.640;37.532;2023-04-25T00:22:10;98570.84;;;15.48;37.31
43298;BME280;28892;55.640;37.532;2023-04-25T00:24:37;98569.91;;;15.00;38.86
43298;BME280;28892;55.640;37.532;2023-04-25T00:27:03;98575.41;;;14.75;39.24
43298;BME280;28892;55.640;37.532;2023-04-25T00:29:29;98591.09;;;14.83;39.51
43298;BME280;28892;55.640;37.532;2023-04-25T00:31:55;98574.63;;;14.49;40.63
43298;BME280;28892;55.640;37.532;2023-04-25T00:34:21;98569.44;;;14.17;41.03
43298;BME280;28892;55.640;37.532;2023-04-25T00:36:47;98572.59;;;14.32;40.56
43298;BME280;28892;55.640;37.532;2023-04-25T00:39:12;98583.06;;;13.90;41.46
43298;BME280;28892;55.640;37.532;2023-04-25T00:41:39;98570.47;;;13.97;41.08
43298;BME280;28892;55.640;37.532;2023-04-25T00:44:05;98576.09;;;13.89;41.97
43298;BME280;28892;55.640;37.532;2023-04-25T00:46:32;98581.59;;;14.13;41.26
43298;BME280;28892;55.640;37.532;2023-04-25T00:48:58;98577.69;;;14.15;41.49
43298;BME280;28892;55.640;37.532;2023-04-25T00:51:25;98569.31;;;14.49;40.50
43298;BME280;28892;55.640;37.532;2023-04-25T00:53:52;98567.00;;;14.71;39.79
43298;BME280;28892;55.640;37.532;2023-04-25T00:56:18;98561.97;;;14.44;40.52
43298;BME280;28892;55.640;37.532;2023-04-25T00:58:44;98573.22;;;14.65;39.94
43298;BME280;28892;55.640;37.532;2023-04-25T01:01:11;98577.53;;;14.85;39.52
43298;BME280;28892;55.640;37.532;2023-04-25T01:03:39;98572.63;;;15.12;39.26
43298;BME280;28892;55.640;37.532;2023-04-25T01:06:11;98564.13;;;15.03;39.69
43298;BME280;28892;55.640;37.532;2023-04-25T01:08:38;98566.09;;;14.77;39.94
43298;BME280;28892;55.640;37.532;2023-04-25T01:11:05;98559.63;;;14.17;40.98
43298;BME280;28892;55.640;37.532;2023-04-25T01:13:32;98576.25;;;13.94;41.62
43298;BME280;28892;55.640;37.532;2023-04-25T01:15:59;98574.16;;;13.77;42.07
43298;BME280;28892;55.640;37.532;2023-04-25T01:18:25;98581.06;;;13.85;42.25
43298;BME280;28892;55.640;37.532;2023-04-25T01:20:52;98561.69;;;14.15;41.35
43298;BME280;28892;55.640;37.532;2023-04-25T01:23:21;98569.25;;;14.37;40.83
43298;BME280;28892;55.640;37.532;2023-04-25T01:25:48;98559.38;;;14.19;41.23
43298;BME280;28892;55.640;37.532;2023-04-25T01:28:15;98545.75;;;14.46;39.96
43298;BME280;28892;55.640;37.532;2023-04-25T01:30:42;98560.53;;;14.60;40.26
43298;BME280;28892;55.640;37.532;2023-04-25T01:33:08;98541.06;;;14.41;40.34
43298;BME280;28892;55.640;37.532;2023-04-25T01:35:34;98556.31;;;14.71;39.87
43298;BME280;28892;55.640;37.532;2023-04-25T01:38:00;98554.72;;;14.51;40.29
43298;BME280;28892;55.640;37.532;2023-04-25T01:40:27;98550.38;;;14.20;41.04
43298;BME280;28892;55.640;37.532;2023-04-25T01:42:53;98543.47;;;14.31;40.72
43298;BME280;28892;55.640;37.532;2023-04-25T01:45:20;98553.16;;;14.25;41.98
43298;BME280;28892;55.640;37.532;2023-04-25T01:47:47;98546.19;;;14.43;41.19
43298;BME280;28892;55.640;37.532;2023-04-25T01:50:17;98546.50;;;14.53;40.79
43298;BME280;28892;55.640;37.532;2023-04-25T01:52:43;98538.69;;;14.70;40.51
43298;BME280;28892;55.640;37.532;2023-04-25T01:55:10;98530.97;;;14.80;39.77
43298;BME280;28892;55.640;37.532;2023-04-25T01:57:40;98532.69;;;14.75;40.29
43298;BME280;28892;55.640;37.532;2023-04-25T02:00:07;98541.97;;;14.84;39.77
43298;BME280;28892;55.640;37.532;2023-04-25T02:02:41;98543.28;;;14.82;40.35
43298;BME280;28892;55.640;37.532;2023-04-25T02:05:19;98537.78;;;15.19;39.95
43298;BME280;28892;55.640;37.532;2023-04-25T02:07:45;98538.53;;;15.38;39.15
43298;BME280;28892;55.640;37.532;2023-04-25T02:10:11;98541.19;;;15.38;39.48
43298;BME280;28892;55.640;37.532;2023-04-25T02:12:49;98535.75;;;15.33;38.54
43298;BME280;28892;55.640;37.532;2023-04-25T02:15:33;98542.03;;;15.50;38.40
43298;BME280;28892;55.640;37.532;2023-04-25T02:18:29;98539.25;;;15.45;38.49
43298;BME280;28892;55.640;37.532;2023-04-25T02:21:00;98538.44;;;15.57;38.23
43298;BME280;28892;55.640;37.532;2023-04-25T02:23:28;98533.09;;;15.69;38.14
43298;BME280;28892;55.640;37.532;2023-04-25T02:25:54;98536.69;;;15.50;38.56
43298;BME280;28892;55.640;37.532;2023-04-25T02:28:21;98548.31;;;15.56;38.67
43298;BME280;28892;55.640;37.532;2023-04-25T02:30:47;98540.41;;;15.61;38.01
43298;BME280;28892;55.640;37.532;2023-04-25T02:33:13;98538.56;;;15.74;37.98
43298;BME280;28892;55.640;37.532;2023-04-25T02:35:39;98530.78;;;15.72;37.90
43298;BME280;28892;55.640;37.532;2023-04-25T02:38:04;98552.13;;;15.48;38.72
43298;BME280;28892;55.640;37.532;2023-04-25T02:40:32;98535.91;;;14.96;39.95
43298;BME280;28892;55.640;37.532;2023-04-25T02:42:58;98536.22;;;14.87;39.58
43298;BME280;28892;55.640;37.532;2023-04-25T02:45:26;98545.00;;;14.38;40.83
43298;BME280;28892;55.640;37.532;2023-04-25T02:47:51;98540.59;;;14.82;40.08
43298;BME280;28892;55.640;37.532;2023-04-25T02:50:18;98540.34;;;15.14;39.27
43298;BME280;28892;55.640;37.532;2023-04-25T02:52:44;98538.06;;;15.53;38.64
43298;BME280;28892;55.640;37.532;2023-04-25T02:55:19;98528.31;;;15.59;38.10
43298;BME280;28892;55.640;37.532;2023-04-25T02:57:46;98533.78;;;15.64;38.56
43298;BME280;28892;55.640;37.532;2023-04-25T03:00:19;98527.75;;;15.57;38.31
43298;BME280;28892;55.640;37.532;2023-04-25T03:02:45;98544.59;;;15.57;38.54
43298;BME280;28892;55.640;37.532;2023-04-25T03:05:11;98538.63;;;15.31;39.04
43298;BME280;28892;55.640;37.532;2023-04-25T03:07:38;98526.56;;;15.29;39.25
43298;BME280;28892;55.640;37.532;2023-04-25T03:10:07;98535.03;;;15.26;39.51
43298;BME280;28892;55.640;37.532;2023-04-25T03:12:34;98524.50;;;14.88;39.98
43298;BME280;28892;55.640;37.532;2023-04-25T03:15:00;98548.31;;;14.71;40.35
43298;BME280;28892;55.640;37.532;2023-04-25T03:17:27;98551.09;;;14.46;41.29
43298;BME280;28892;55.640;37.532;2023-04-25T03:19:53;98556.13;;;13.98;42.44
43298;BME280;28892;55.640;37.532;2023-04-25T03:22:19;98546.13;;;14.31;41.83
43298;BME280;28892;55.640;37.532;2023-04-25T03:24:45;98540.38;;;14.64;40.88
43298;BME280;28892;55.640;37.532;2023-04-25T03:27:11;98526.38;;;14.69;40.85
43298;BME280;28892;55.640;37.532;2023-04-25T03:29:37;98553.38;;;14.42;41.85
43298;BME280;28892;55.640;37.532;2023-04-25T03:32:04;98550.44;;;14.62;41.37
43298;BME280;28892;55.640;37.532;2023-04-25T03:34:30;98543.47;;;14.31;42.25
43298;BME280;28892;55.640;37.532;2023-04-25T03:36:56;98556.81;;;13.87;43.42
43298;BME280;28892;55.640;37.532;2023-04-25T03:39:22;98549.72;;;13.80;43.54
43298;BME280;28892;55.640;37.532;2023-04-25T03:41:50;98544.84;;;13.96;43.15
43298;BME280;28892;55.640;37.532;2023-04-25T03:44:17;98553.47;;;13.98;43.78
43298;BME280;28892;55.640;37.532;2023-04-25T03:46:44;98542.25;;;13.89;44.06
43298;BME280;28892;55.640;37.532;2023-04-25T03:49:10;98551.19;;;13.76;44.38
43298;BME280;28892;55.640;37.532;2023-04-25T03:51:54;98553.94;;;13.88;44.27
43298;BME280;28892;55.640;37.532;2023-04-25T03:54:21;98558.91;;;13.59;45.04
43298;BME280;28892;55.640;37.532;2023-04-25T03:57:02;98545.03;;;13.76;44.77
43298;BME280;28892;55.640;37.532;2023-04-25T03:59:31;98551.41;;;13.49;45.72
43298;BME280;28892;55.640;37.532;2023-04-25T04:01:57;98548.69;;;13.81;44.83
43298;BME280;28892;55.640;37.532;2023-04-25T04:04:23;98544.22;;;13.75;44.85
43298;BME280;28892;55.640;37.532;2023-04-25T04:06:49;98543.53;;;14.05;44.04
43298;BME280;28892;55.640;37.532;2023-04-25T04:09:21;98540.72;;;14.00;44.35
43298;BME280;28892;55.640;37.532;2023-04-25T04:11:47;98553.00;;;14.01;44.71
43298;BME280;28892;55.640;37.532;2023-04-25T04:14:39;98543.91;;;14.28;44.79
43298;BME280;28892;55.640;37.532;2023-04-25T04:17:05;98539.13;;;13.92;45.17
43298;BME280;28892;55.640;37.532;2023-04-25T04:19:34;98553.81;;;14.02;45.05
43298;BME280;28892;55.640;37.532;2023-04-25T04:22:14;98548.19;;;14.29;44.14
43298;BME280;28892;55.640;37.532;2023-04-25T04:24:40;98548.41;;;14.64;43.35
43298;BME280;28892;55.640;37.532;2023-04-25T04:27:09;98549.28;;;14.39;44.40
43298;BME280;28892;55.640;37.532;2023-04-25T04:29:50;98557.28;;;14.58;43.96
43298;BME280;28892;55.640;37.532;2023-04-25T04:32:32;98549.28;;;14.77;43.84
43298;BME280;28892;55.640;37.532;2023-04-25T04:35:04;98551.19;;;14.70;44.41
43298;BME280;28892;55.640;37.532;2023-04-25T04:37:30;98547.25;;;14.42;44.80
43298;BME280;28892;55.640;37.532;2023-04-25T04:39:57;98542.03;;;14.47;44.57
43298;BME280;28892;55.640;37.532;2023-04-25T04:42:38;98534.59;;;14.67;43.69
43298;BME280;28892;55.640;37.532;2023-04-25T04:45:14;98544.78;;;14.59;44.17
43298;BME280;28892;55.640;37.532;2023-04-25T04:48:06;98553.28;;;14.86;43.72
43298;BME280;28892;55.640;37.532;2023-04-25T04:50:45;98550.38;;;15.30;42.80
43298;BME280;28892;55.640;37.532;2023-04-25T04:53:39;98533.53;;;15.42;42.20
43298;BME280;28892;55.640;37.532;2023-04-25T04:56:20;98531.13;;;15.64;41.71
43298;BME280;28892;55.640;37.532;2023-04-25T04:59:07;98545.75;;;15.49;42.39
43298;BME280;28892;55.640;37.532;2023-04-25T05:01:46;98537.63;;;15.56;42.03
43298;BME280;28892;55.640;37.532;2023-04-25T05:04:15;98540.09;;;15.94;41.31
43298;BME280;28892;55.640;37.532;2023-04-25T05:07:07;98532.06;;;15.94;40.78
43298;BME280;28892;55.640;37.532;2023-04-25T05:09:49;98523.38;;;16.39;40.05
43298;BME280;28892;55.640;37.532;2023-04-25T05:12:23;98527.34;;;16.66;39.94
43298;BME280;28892;55.640;37.532;2023-04-25T05:15:18;98533.44;;;17.19;38.43
43298;BME280;28892;55.640;37.532;2023-04-25T05:18:02;98530.56;;;17.77;37.38
43298;BME280;28892;55.640;37.532;2023-04-25T05:20:51;98533.47;;;18.10;36.56
43298;BME280;28892;55.640;37.532;2023-04-25T05:23:35;98533.94;;;18.07;36.72
43298;BME280;28892;55.640;37.532;2023-04-25T05:26:23;98534.88;;;18.18;36.23
43298;BME280;28892;55.640;37.532;2023-04-25T05:29:12;98526.69;;;18.52;35.58
43298;BME280;28892;55.640;37.532;2023-04-25T05:32:01;98527.34;;;18.37;35.56
43298;BME280;28892;55.640;37.532;2023-04-25T05:34:28;98527.75;;;18.28;35.90
43298;BME280;28892;55.640;37.532;2023-04-25T05:36:56;98522.50;;;17.77;36.55
43298;BME280;28892;55.640;37.532;2023-04-25T05:39:23;98516.78;;;18.08;36.27
43298;BME280;28892;55.640;37.532;2023-04-25T05:42:14;98523.75;;;18.09;35.42
43298;BME280;28892;55.640;37.532;2023-04-25T05:44:52;98512.09;;;18.20;35.06
43298;BME280;28892;55.640;37.532;2023-04-25T05:47:24;98521.03;;;17.86;36.11
43298;BME280;28892;55.640;37.532;2023-04-25T05:50:05;98520.91;;;17.98;36.01
43298;BME280;28892;55.640;37.532;2023-04-25T05:53:00;98506.13;;;18.13;35.37
43298;BME280;28892;55.640;37.532;2023-04-25T05:55:31;98520.41;;;17.62;36.30
43298;BME280;28892;55.640;37.532;2023-04-25T05:57:59;98514.16;;;17.56;36.71
43298;BME280;28892;55.640;37.532;2023-04-25T06:00:28;98512.28;;;17.74;36.83
43298;BME280;28892;55.640;37.532;2023-04-25T06:02:54;98514.19;;;17.96;36.15
43298;BME280;28892;55.640;37.532;2023-04-25T06:05:24;98510.34;;;17.92;35.97
43298;BME280;28892;55.640;37.532;2023-04-25T06:07:53;98511.41;;;18.08;35.91
43298;BME280;28892;55.640;37.532;2023-04-25T06:10:19;98509.56;;;18.58;35.35
43298;BME280;28892;55.640;37.532;2023-04-25T06:12:46;98497.72;;;18.81;34.64
43298;BME280;28892;55.640;37.532;2023-04-25T06:15:14;98495.59;;;19.11;34.65
43298;BME280;28892;55.640;37.532;2023-04-25T06:17:41;98502.25;;;18.76;34.90
43298;BME280;28892;55.640;37.532;2023-04-25T06:20:11;98479.31;;;18.95;34.13
43298;BME280;28892;55.640;37.532;2023-04-25T06:22:39;98479.16;;;19.45;33.94
43298;BME280;28892;55.640;37.532;2023-04-25T06:25:05;98475.72;;;19.50;33.69
43298;BME280;28892;55.640;37.532;2023-04-25T06:27:33;98479.03;;;19.62;33.69
43298;BME280;28892;55.640;37.532;2023-04-25T06:30:00;98470.63;;;19.53;33.74
43298;BME280;28892;55.640;37.532;2023-04-25T06:32:27;98489.97;;;19.50;33.45
43298;BME280;28892;55.640;37.532;2023-04-25T06:34:56;98472.53;;;19.15;34.36
43298;BME280;28892;55.640;37.532;2023-04-25T06:37:22;98482.50;;;19.20;33.66
43298;BME280;28892;55.640;37.532;2023-04-25T06:39:50;98467.56;;;19.02;34.03
43298;BME280;28892;55.640;37.532;2023-04-25T06:42:16;98475.78;;;18.90;32.77
43298;BME280;28892;55.640;37.532;2023-04-25T06:45:05;98475.94;;;19.05;32.91
43298;BME280;28892;55.640;37.532;2023-04-25T06:47:33;98477.13;;;19.58;31.47
43298;BME280;28892;55.640;37.532;2023-04-25T06:50:00;98472.38;;;19.75;31.88
43298;BME280;28892;55.640;37.532;2023-04-25T06:52:29;98475.84;;;19.71;31.79
43298;BME280;28892;55.640;37.532;2023-04-25T06:54:55;98483.16;;;20.44;30.83
43298;BME280;28892;55.640;37.532;2023-04-25T06:57:36;98480.34;;;20.98;30.46
43298;BME280;28892;55.640;37.532;2023-04-25T07:00:22;98471.94;;;21.51;28.69
43298;BME280;28892;55.640;37.532;2023-04-25T07:02:49;98493.50;;;21.72;28.64
43298;BME280;28892;55.640;37.532;2023-04-25T07:05:16;98477.00;;;21.89;28.09
43298;BME280;28892;55.640;37.532;2023-04-25T07:07:42;98494.47;;;22.07;27.55
43298;BME280;28892;55.640;37.532;2023-04-25T07:10:09;98484.97;;;22.15;27.35
43298;BME280;28892;55.640;37.532;2023-04-25T07:12:40;98488.63;;;21.89;28.41
43298;BME280;28892;55.640;37.532;2023-04-25T07:15:13;98474.69;;;21.04;29.52
43298;BME280;28892;55.640;37.532;2023-04-25T07:17:43;98484.03;;;20.55;31.19
43298;BME280;28892;55.640;37.532;2023-04-25T07:20:16;98485.00;;;20.28;31.10
43298;BME280;28892;55.640;37.532;2023-04-25T07:22:42;98487.34;;;21.14;30.06
43298;BME280;28892;55.640;37.532;2023-04-25T07:25:10;98485.91;;;21.89;28.67
43298;BME280;28892;55.640;37.532;2023-04-25T07:27:37;98471.72;;;22.24;27.96
43298;BME280;28892;55.640;37.532;2023-04-25T07:30:12;98484.50;;;22.63;27.90
43298;BME280;28892;55.640;37.532;2023-04-25T07:32:41;98477.41;;;22.72;27.37
43298;BME280;28892;55.640;37.532;2023-04-25T07:35:10;98479.63;;;22.04;27.60
43298;BME280;28892;55.640;37.532;2023-04-25T07:37:43;98475.13;;;21.63;28.16
43298;BME280;28892;55.640;37.532;2023-04-25T07:40:15;98477.06;;;21.27;29.92
43298;BME280;28892;55.640;37.532;2023-04-25T07:42:48;98482.72;;;21.72;29.70
43298;BME280;28892;55.640;37.532;2023-04-25T07:45:22;98487.25;;;21.82;29.76
43298;BME280;28892;55.640;37.532;2023-04-25T07:47:51;98482.34;;;21.99;29.51
43298;BME280;28892;55.640;37.532;2023-04-25T07:50:18;98467.22;;;22.09;29.04
43298;BME280;28892;55.640;37.532;2023-04-25T07:52:49;98475.56;;;22.12;28.82
43298;BME280;28892;55.640;37.532;2023-04-25T07:55:22;98472.38;;;22.55;27.81
43298;BME280;28892;55.640;37.532;2023-04-25T07:58:02;98472.50;;;22.80;27.46
43298;BME280;28892;55.640;37.532;2023-04-25T08:00:36;98464.72;;;23.08;27.54
43298;BME280;28892;55.640;37.532;2023-04-25T08:03:23;98484.19;;;23.10;26.89
43298;BME280;28892;55.640;37.532;2023-04-25T08:05:52;98479.38;;;22.62;27.87
43298;BME280;28892;55.640;37.532;2023-04-25T08:08:19;98475.28;;;22.64;27.84
43298;BME280;28892;55.640;37.532;2023-04-25T08:10:45;98481.09;;;22.42;27.90
43298;BME280;28892;55.640;37.532;2023-04-25T08:13:20;98484.09;;;22.35;28.72
43298;BME280;28892;55.640;37.532;2023-04-25T08:15:46;98483.25;;;21.79;29.57
43298;BME280;28892;55.640;37.532;2023-04-25T08:18:15;98480.34;;;21.08;30.63
43298;BME280;28892;55.640;37.532;2023-04-25T08:20:41;98459.00;;;21.22;30.26
43298;BME280;28892;55.640;37.532;2023-04-25T08:23:14;98469.78;;;21.58;29.69
43298;BME280;28892;55.640;37.532;2023-04-25T08:26:00;98483.19;;;21.95;28.73
43298;BME280;28892;55.640;37.532;2023-04-25T08:28:28;98465.19;;;22.30;28.61
43298;BME280;28892;55.640;37.532;2023-04-25T08:30:56;98464.03;;;22.52;28.38
43298;BME280;28892;55.640;37.532;2023-04-25T08:33:24;98471.13;;;21.56;29.63
43298;BME280;28892;55.640;37.532;2023-04-25T08:36:01;98454.41;;;20.81;30.72
43298;BME280;28892;55.640;37.532;2023-04-25T08:38:32;98469.25;;;20.89;30.79
43298;BME280;28892;55.640;37.532;2023-04-25T08:41:00;98459.53;;;21.34;29.87
43298;BME280;28892;55.640;37.532;2023-04-25T08:43:51;98448.81;;;22.11;29.38
43298;BME280;28892;55.640;37.532;2023-04-25T08:47:12;98450.53;;;22.46;28.43
43298;BME280;28892;55.640;37.532;2023-04-25T08:50:22;98452.69;;;21.89;29.18
43298;BME280;28892;55.640;37.532;2023-04-25T08:52:53;98453.56;;;21.58;29.62
43298;BME280;28892;55.640;37.532;2023-04-25T08:55:25;98453.59;;;21.43;29.38
43298;BME280;28892;55.640;37.532;2023-04-25T09:02:53;98439.91;;;23.60;26.91
43298;BME280;28892;55.640;37.532;2023-04-25T09:17:58;98422.56;;;24.09;27.30
43298;BME280;28892;55.640;37.532;2023-04-25T09:21:01;98424.78;;;24.02;27.02
43298;BME280;28892;55.640;37.532;2023-04-25T09:32:32;98409.09;;;23.55;25.28
43298;BME280;28892;55.640;37.532;2023-04-25T09:34:58;98422.25;;;23.38;26.03
43298;BME280;28892;55.640;37.532;2023-04-25T09:37:33;98417.88;;;24.15;25.12
43298;BME280;28892;55.640;37.532;2023-04-25T09:40:43;98419.16;;;24.75;24.49
43298;BME280;28892;55.640;37.532;2023-04-25T09:45:42;98404.53;;;25.09;24.26
43298;BME280;28892;55.640;37.532;2023-04-25T09:48:12;98400.16;;;24.61;25.44
43298;BME280;28892;55.640;37.532;2023-04-25T09:50:42;98401.75;;;24.62;24.84
43298;BME280;28892;55.640;37.532;2023-04-25T09:53:10;98403.91;;;24.46;24.60
43298;BME280;28892;55.640;37.532;2023-04-25T09:55:56;98394.31;;;23.48;24.98
43298;BME280;28892;55.640;37.532;2023-04-25T09:58:23;98403.41;;;22.98;25.55
43298;BME280;28892;55.640;37.532;2023-04-25T10:00:51;98403.63;;;23.61;25.08
43298;BME280;28892;55.640;37.532;2023-04-25T10:03:30;98392.75;;;24.09;24.66
43298;BME280;28892;55.640;37.532;2023-04-25T10:06:29;98406.97;;;23.52;25.12
43298;BME280;28892;55.640;37.532;2023-04-25T10:08:57;98382.88;;;22.97;25.74
43298;BME280;28892;55.640;37.532;2023-04-25T10:11:24;98394.31;;;22.88;25.93
43298;BME280;28892;55.640;37.532;2023-04-25T10:13:52;98392.69;;;23.17;26.16
43298;BME280;28892;55.640;37.532;2023-04-25T10:16:18;98405.59;;;23.30;25.53
43298;BME280;28892;55.640;37.532;2023-04-25T10:18:45;98387.78;;;23.19;25.83
43298;BME280;28892;55.640;37.532;2023-04-25T10:21:11;98382.38;;;23.49;25.47
43298;BME280;28892;55.640;37.532;2023-04-25T10:27:18;98360.91;;;24.73;24.17
43298;BME280;28892;55.640;37.532;2023-04-25T10:30:00;98371.34;;;24.65;24.30
43298;BME280;28892;55.640;37.532;2023-04-25T10:32:26;98356.69;;;23.90;24.96
43298;BME280;28892;55.640;37.532;2023-04-25T10:34:52;98373.22;;;23.69;25.33
43298;BME280;28892;55.640;37.532;2023-04-25T10:37:18;98362.75;;;23.81;25.42
43298;BME280;28892;55.640;37.532;2023-04-25T10:39:44;98360.03;;;24.25;24.81
43298;BME280;28892;55.640;37.532;2023-04-25T10:42:12;98357.94;;;23.78;25.17
43298;BME280;28892;55.640;37.532;2023-04-25T10:44:38;98344.78;;;23.91;25.57
43298;BME280;28892;55.640;37.532;2023-04-25T10:47:07;98354.84;;;23.66;25.72
43298;BME280;28892;55.640;37.532;2023-04-25T10:49:41;98355.06;;;24.65;24.79
43298;BME280;28892;55.640;37.532;2023-04-25T10:52:15;98345.63;;;24.96;24.95
43298;BME280;28892;55.640;37.532;2023-04-25T10:54:52;98335.47;;;25.02;24.01
43298;BME280;28892;55.640;37.532;2023-04-25T10:57:41;98337.41;;;24.16;25.33
43298;BME280;28892;55.640;37.532;2023-04-25T11:00:16;98341.41;;;24.37;25.21
43298;BME280;28892;55.640;37.532;2023-04-25T11:02:43;98337.88;;;24.56;24.63
43298;BME280;28892;55.640;37.532;2023-04-25T11:05:14;98333.16;;;24.28;25.00
43298;BME280;28892;55.640;37.532;2023-04-25T11:07:52;98331.50;;;24.47;24.86
43298;BME280;28892;55.640;37.532;2023-04-25T11:10:20;98331.09;;;24.01;25.19
43298;BME280;28892;55.640;37.532;2023-04-25T11:12:46;98313.75;;;23.64;25.41
43298;BME280;28892;55.640;37.532;2023-04-25T11:15:13;98322.91;;;23.43;25.54
43298;BME280;28892;55.640;37.532;2023-04-25T11:17:39;98315.41;;;23.11;26.50
43298;BME280;28892;55.640;37.532;2023-04-25T11:20:31;98302.00;;;23.00;26.29
43298;BME280;28892;55.640;37.532;2023-04-25T11:23:34;98310.44;;;23.18;26.17
43298;BME280;28892;55.640;37.532;2023-04-25T11:26:00;98300.38;;;22.70;27.00
43298;BME280;28892;55.640;37.532;2023-04-25T11:28:27;98294.69;;;22.77;26.89
43298;BME280;28892;55.640;37.532;2023-04-25T11:30:52;98284.50;;;22.63;26.54
43298;BME280;28892;55.640;37.532;2023-04-25T11:33:23;98292.09;;;22.91;26.90
43298;BME280;28892;55.640;37.532;2023-04-25T11:35:50;98278.75;;;22.99;26.44
43298;BME280;28892;55.640;37.532;2023-04-25T11:38:18;98276.56;;;23.01;26.09
43298;BME280;28892;55.640;37.532;2023-04-25T11:40:49;98281.47;;;22.99;26.21
43298;BME280;28892;55.640;37.532;2023-04-25T11:43:15;98281.69;;;23.03;26.42
43298;BME280;28892;55.640;37.532;2023-04-25T11:45:41;98267.97;;;22.94;26.50
43298;BME280;28892;55.640;37.532;2023-04-25T11:48:07;98266.41;;;22.64;26.56
43298;BME280;28892;55.640;37.532;2023-04-25T11:50:33;98270.00;;;22.54;26.17
43298;BME280;28892;55.640;37.532;2023-04-25T11:52:59;98267.25;;;22.24;26.68
43298;BME280;28892;55.640;37.532;2023-04-25T11:55:24;98263.09;;;22.08;26.70
43298;BME280;28892;55.640;37.532;2023-04-25T11:57:51;98261.25;;;21.98;26.44
43298;BME280;28892;55.640;37.532;2023-04-25T12:00:20;98266.41;;;21.94;26.87
43298;BME280;28892;55.640;37.532;2023-04-25T12:02:57;98255.84;;;21.98;26.67
43298;BME280;28892;55.640;37.532;2023-04-25T12:05:27;98249.63;;;20.91;27.94
43298;BME280;28892;55.640;37.532;2023-04-25T12:08:13;98253.31;;;21.06;28.42
43298;BME280;28892;55.640;37.532;2023-04-25T12:10:45;98264.94;;;21.62;27.62
43298;BME280;28892;55.640;37.532;2023-04-25T12:13:25;98256.03;;;21.72;27.36
43298;BME280;28892;55.640;37.532;2023-04-25T12:15:54;98232.03;;;21.15;27.50
43298;BME280;28892;55.640;37.532;2023-04-25T12:18:23;98240.75;;;20.65;28.54
43298;BME280;28892;55.640;37.532;2023-04-25T12:20:49;98227.63;;;20.22;28.93
43298;BME280;28892;55.640;37.532;2023-04-25T12:23:20;98237.28;;;20.18;29.29
43298;BME280;28892;55.640;37.532;2023-04-25T12:25:50;98229.50;;;20.16;29.34
43298;BME280;28892;55.640;37.532;2023-04-25T12:28:20;98227.84;;;20.36;29.93
43298;BME280;28892;55.640;37.532;2023-04-25T12:30:56;98219.94;;;21.02;29.00
43298;BME280;28892;55.640;37.532;2023-04-25T12:33:27;98217.63;;;21.35;28.60
43298;BME280;28892;55.640;37.532;2023-04-25T12:35:54;98223.78;;;21.41;29.18
43298;BME280;28892;55.640;37.532;2023-04-25T12:38:30;98198.56;;;21.66;28.34
43298;BME280;28892;55.640;37.532;2023-04-25T12:40:59;98204.03;;;21.50;28.41
43298;BME280;28892;55.640;37.532;2023-04-25T12:43:28;98198.94;;;21.44;28.43
43298;BME280;28892;55.640;37.532;2023-04-25T12:46:00;98206.06;;;21.29;28.45
43298;BME280;28892;55.640;37.532;2023-04-25T12:48:29;98182.38;;;21.21;28.29
43298;BME280;28892;55.640;37.532;2023-04-25T12:51:20;98188.59;;;21.61;28.82
43298;BME280;28892;55.640;37.532;2023-04-25T12:53:56;98189.31;;;21.32;29.25
43298;BME280;28892;55.640;37.532;2023-04-25T12:56:22;98183.22;;;21.11;29.91
43298;BME280;28892;55.640;37.532;2023-04-25T12:58:48;98182.38;;;21.21;29.92
43298;BME280;28892;55.640;37.532;2023-04-25T13:01:14;98183.75;;;21.13;30.20
43298;BME280;28892;55.640;37.532;2023-04-25T13:03:40;98186.72;;;21.17;29.76
43298;BME280;28892;55.640;37.532;2023-04-25T13:06:07;98166.25;;;21.11;29.72
43298;BME280;28892;55.640;37.532;2023-04-25T13:08:33;98173.31;;;20.96;29.61
43298;BME280;28892;55.640;37.532;2023-04-25T13:10:58;98167.06;;;21.06;29.40
43298;BME280;28892;55.640;37.532;2023-04-25T13:13:25;98179.28;;;20.93;30.08
43298;BME280;28892;55.640;37.532;2023-04-25T13:15:52;98163.59;;;21.05;29.94
43298;BME280;28892;55.640;37.532;2023-04-25T13:18:21;98161.03;;;21.25;29.21
43298;BME280;28892;55.640;37.532;2023-04-25T13:20:49;98139.81;;;20.36;30.16
43298;BME280;28892;55.640;37.532;2023-04-25T13:23:26;98147.81;;;20.62;30.34
43298;BME280;28892;55.640;37.532;2023-04-25T13:26:03;98147.09;;;21.12;30.01
43298;BME280;28892;55.640;37.532;2023-04-25T13:28:29;98147.75;;;21.39;30.18
43298;BME280;28892;55.640;37.532;2023-04-25T13:30:58;98141.78;;;21.42;30.10
43298;BME280;28892;55.640;37.532;2023-04-25T13:33:24;98123.81;;;21.67;29.82
43298;BME280;28892;55.640;37.532;2023-04-25T13:35:54;98135.97;;;21.69;29.55
43298;BME280;28892;55.640;37.532;2023-04-25T13:38:23;98123.66;;;21.53;29.48
43298;BME280;28892;55.640;37.532;2023-04-25T13:40:51;98131.31;;;21.35;29.94
43298;BME280;28892;55.640;37.532;2023-04-25T13:43:19;98131.19;;;21.16;30.62